createdAt,value
2022-11-06T00:00:30.088Z,7.30
2022-11-06T00:03:00.235Z,10.43
2022-11-06T00:05:46.432Z,6.43
2022-11-06T00:08:15.061Z,7.63
2022-11-06T00:10:43.490Z,6.17
2022-11-06T00:13:11.498Z,7.13
2022-11-06T00:15:39.411Z,12.60
2022-11-06T00:18:08.786Z,19.43
2022-11-06T00:20:37.753Z,9.40
2022-11-06T00:23:05.769Z,12.13
2022-11-06T00:25:33.794Z,8.73
2022-11-06T00:28:01.818Z,6.90
2022-11-06T00:30:29.831Z,14.23
2022-11-06T00:32:58.735Z,4.93
2022-11-06T00:35:28.179Z,6.70
2022-11-06T00:37:56.250Z,6.80
2022-11-06T00:40:24.386Z,6.53
2022-11-06T00:42:56.739Z,8.03
2022-11-06T00:45:25.611Z,17.73
2022-11-06T00:47:53.912Z,10.90
2022-11-06T00:50:26.144Z,4.33
2022-11-06T00:52:56.128Z,5.27
2022-11-06T00:55:24.150Z,7.80
2022-11-06T00:57:52.309Z,3.93
2022-11-06T01:00:20.596Z,6.03
2022-11-06T01:02:49.097Z,8.43
2022-11-06T01:05:17.753Z,4.90
2022-11-06T01:07:45.848Z,4.93
2022-11-06T01:10:15.327Z,6.30
2022-11-06T01:12:43.579Z,3.27
2022-11-06T01:15:12.271Z,4.80
2022-11-06T01:17:40.284Z,3.67
2022-11-06T01:20:09.919Z,4.00
2022-11-06T01:22:37.934Z,8.67
2022-11-06T01:25:07.056Z,6.73
2022-11-06T01:27:36.613Z,6.97
2022-11-06T01:30:05.758Z,4.07
2022-11-06T01:32:35.166Z,2.83
2022-11-06T01:35:03.201Z,4.07
2022-11-06T01:37:31.252Z,3.40
2022-11-06T01:39:59.334Z,4.40
2022-11-06T01:42:27.340Z,7.80
2022-11-06T01:45:27.003Z,4.33
2022-11-06T01:47:55.194Z,4.83
2022-11-06T01:50:24.470Z,5.43
2022-11-06T01:52:52.924Z,3.53
2022-11-06T01:55:26.107Z,3.63
2022-11-06T01:57:55.418Z,5.03
2022-11-06T02:00:23.865Z,4.87
2022-11-06T02:02:53.624Z,4.87
2022-11-06T02:05:22.121Z,4.07
2022-11-06T02:07:50.400Z,4.07
2022-11-06T02:10:18.615Z,5.47
2022-11-06T02:12:55.984Z,3.67
2022-11-06T02:15:33.809Z,4.07
2022-11-06T02:18:25.279Z,4.13
2022-11-06T02:21:20.640Z,3.83
2022-11-06T02:23:59.608Z,4.67
2022-11-06T02:26:51.026Z,5.73
2022-11-06T02:29:22.594Z,4.10
2022-11-06T02:31:55.531Z,5.53
2022-11-06T02:34:27.308Z,5.63
2022-11-06T02:37:01.148Z,10.30
2022-11-06T02:39:33.814Z,6.23
2022-11-06T02:42:05.983Z,8.07
2022-11-06T02:44:37.483Z,4.93
2022-11-06T02:47:08.778Z,5.77
2022-11-06T02:49:41.832Z,4.70
2022-11-06T02:52:14.302Z,5.10
2022-11-06T02:54:47.173Z,13.10
2022-11-06T02:57:21.453Z,8.60
2022-11-06T02:59:55.891Z,4.70
2022-11-06T03:02:31.349Z,6.53
2022-11-06T03:05:05.550Z,6.57
2022-11-06T03:07:39.038Z,5.40
2022-11-06T03:10:09.188Z,8.83
2022-11-06T03:12:50.963Z,11.97
2022-11-06T03:15:27.628Z,5.50
2022-11-06T03:18:03.437Z,5.47
2022-11-06T03:20:37.051Z,5.00
2022-11-06T03:23:12.001Z,6.83
2022-11-06T03:25:45.872Z,9.93
2022-11-06T03:28:20.770Z,6.83
2022-11-06T03:30:54.279Z,5.10
2022-11-06T03:33:30.212Z,10.33
2022-11-06T03:36:03.062Z,6.13
2022-11-06T03:38:39.522Z,5.67
2022-11-06T03:41:15.454Z,7.77
2022-11-06T03:43:47.233Z,7.43
2022-11-06T03:46:20.838Z,5.00
2022-11-06T03:48:52.655Z,4.20
2022-11-06T03:51:25.862Z,10.27
2022-11-06T03:53:57.463Z,5.37
2022-11-06T03:56:30.399Z,4.70
2022-11-06T03:59:02.691Z,9.20
2022-11-06T04:01:35.162Z,4.37
2022-11-06T04:04:06.666Z,6.63
2022-11-06T04:06:38.819Z,5.13
2022-11-06T04:09:27.661Z,6.17
2022-11-06T04:12:15.112Z,7.03
2022-11-06T04:14:49.307Z,12.43
2022-11-06T04:17:18.510Z,8.50
2022-11-06T04:19:50.542Z,6.63
2022-11-06T04:22:27.433Z,4.60
2022-11-06T04:25:22.300Z,3.10
2022-11-06T04:28:01.253Z,3.37
2022-11-06T04:30:34.144Z,5.17
2022-11-06T04:33:07.982Z,4.73
2022-11-06T04:35:45.000Z,6.23
2022-11-06T04:38:18.353Z,4.10
2022-11-06T04:40:54.976Z,5.83
2022-11-06T04:43:28.585Z,4.27
2022-11-06T04:45:59.523Z,5.47
2022-11-06T04:48:28.172Z,4.97
2022-11-06T04:51:00.848Z,7.20
2022-11-06T04:53:31.120Z,7.37
2022-11-06T04:56:02.826Z,6.07
2022-11-06T04:58:30.630Z,4.23
2022-11-06T05:01:00.218Z,8.37
2022-11-06T05:03:28.113Z,6.20
2022-11-06T05:05:55.910Z,9.17
2022-11-06T05:08:24.583Z,5.47
2022-11-06T05:10:52.376Z,5.43
2022-11-06T05:13:20.162Z,5.63
2022-11-06T05:15:47.933Z,4.17
2022-11-06T05:18:17.174Z,7.63
2022-11-06T05:20:45.073Z,4.57
2022-11-06T05:23:11.954Z,4.93
2022-11-06T05:25:41.056Z,5.10
2022-11-06T05:28:10.080Z,6.60
2022-11-06T05:30:38.452Z,3.67
2022-11-06T05:33:06.299Z,6.43
2022-11-06T05:35:35.424Z,4.53
2022-11-06T05:38:04.032Z,5.40
2022-11-06T05:40:31.918Z,4.73
2022-11-06T05:42:59.680Z,5.30
2022-11-06T05:45:27.602Z,5.60
2022-11-06T05:47:55.409Z,5.17
2022-11-06T05:50:23.212Z,3.80
2022-11-06T05:52:53.431Z,8.50
2022-11-06T05:55:21.422Z,9.97
2022-11-06T05:57:49.231Z,4.40
2022-11-06T06:00:17.281Z,5.37
2022-11-06T06:02:45.296Z,5.43
2022-11-06T06:05:14.677Z,5.73
2022-11-06T06:07:42.678Z,3.90
2022-11-06T06:10:12.119Z,6.90
2022-11-06T06:12:40.216Z,3.83
2022-11-06T06:15:08.913Z,7.50
2022-11-06T06:17:36.810Z,4.77
2022-11-06T06:20:05.848Z,4.43
2022-11-06T06:22:33.650Z,5.33
2022-11-06T06:25:01.593Z,3.47
2022-11-06T06:27:31.192Z,3.40
2022-11-06T06:29:58.965Z,7.30
2022-11-06T06:32:26.781Z,10.43
2022-11-06T06:34:54.732Z,6.60
2022-11-06T06:37:22.523Z,5.10
2022-11-06T06:39:50.293Z,5.97
2022-11-06T06:42:18.065Z,3.87
2022-11-06T06:44:47.799Z,4.77
2022-11-06T06:47:16.900Z,4.83
2022-11-06T06:49:44.824Z,9.50
2022-11-06T06:52:13.565Z,7.10
2022-11-06T06:54:41.365Z,9.70
2022-11-06T06:57:09.918Z,13.43
2022-11-06T06:59:37.693Z,12.50
2022-11-06T07:02:07.446Z,7.53
2022-11-06T07:04:35.319Z,8.90
2022-11-06T07:07:03.172Z,12.13
2022-11-06T07:09:31.803Z,5.10
2022-11-06T07:12:00.017Z,6.93
2022-11-06T07:14:27.784Z,8.60
2022-11-06T07:16:55.693Z,11.37
2022-11-06T07:19:24.856Z,10.97
2022-11-06T07:21:53.163Z,12.13
2022-11-06T07:24:21.165Z,11.07
2022-11-06T07:26:48.984Z,8.87
2022-11-06T07:29:16.925Z,7.80
2022-11-06T07:31:44.719Z,9.47
2022-11-06T07:34:12.892Z,9.10
2022-11-06T07:36:42.284Z,13.20
2022-11-06T07:39:10.321Z,9.57
2022-11-06T07:41:39.159Z,9.27
2022-11-06T07:44:07.165Z,8.50
2022-11-06T07:46:35.190Z,6.93
2022-11-06T07:49:03.208Z,7.83
2022-11-06T07:51:31.267Z,8.07
2022-11-06T07:54:00.451Z,9.50
2022-11-06T07:56:28.336Z,6.80
2022-11-06T07:58:56.482Z,11.03
2022-11-06T08:01:24.515Z,10.37
2022-11-06T08:03:52.565Z,9.30
2022-11-06T08:06:20.591Z,9.07
2022-11-06T08:08:48.531Z,11.00
2022-11-06T08:11:17.912Z,7.87
2022-11-06T08:13:45.944Z,8.73
2022-11-06T08:16:15.677Z,8.87
2022-11-06T08:18:44.799Z,10.70
2022-11-06T08:21:12.729Z,8.00
2022-11-06T08:23:40.719Z,9.60
2022-11-06T08:26:08.665Z,10.77
2022-11-06T08:28:38.203Z,6.57
2022-11-06T08:31:06.971Z,13.63
2022-11-06T08:33:35.846Z,9.87
2022-11-06T08:36:04.086Z,8.77
2022-11-06T08:38:32.463Z,9.03
2022-11-06T08:41:05.212Z,10.97
2022-11-06T08:43:33.272Z,10.13
2022-11-06T08:46:03.506Z,10.83
2022-11-06T08:48:33.153Z,9.03
2022-11-06T08:51:01.152Z,11.03
2022-11-06T08:53:29.387Z,15.13
2022-11-06T08:55:57.410Z,11.73
2022-11-06T08:58:25.587Z,10.27
2022-11-06T09:00:53.610Z,13.93
2022-11-06T09:03:23.056Z,9.47
2022-11-06T09:05:51.091Z,14.73
2022-11-06T09:08:19.020Z,8.57
2022-11-06T09:10:47.057Z,11.33
2022-11-06T09:13:15.259Z,11.47
2022-11-06T09:15:43.898Z,9.57
2022-11-06T09:18:12.381Z,12.63
2022-11-06T09:20:41.783Z,12.80
2022-11-06T09:23:11.881Z,10.00
2022-11-06T09:25:40.113Z,6.77
2022-11-06T09:28:08.212Z,7.23
2022-11-06T09:30:36.215Z,9.17
2022-11-06T09:33:07.906Z,8.47
2022-11-06T09:35:38.717Z,10.67
2022-11-06T09:38:10.961Z,8.60
2022-11-06T09:40:42.044Z,7.67
2022-11-06T09:44:03.387Z,10.97
2022-11-06T09:46:28.506Z,8.00
2022-11-06T09:49:01.831Z,9.47
2022-11-06T09:51:37.500Z,6.53
2022-11-06T09:54:14.663Z,6.10
2022-11-06T09:56:45.160Z,4.47
2022-11-06T09:59:17.428Z,5.80
2022-11-06T10:01:49.029Z,7.53
2022-11-06T10:04:32.106Z,3.40
2022-11-06T10:07:00.186Z,6.13
2022-11-06T10:09:30.137Z,5.30
2022-11-06T10:12:07.981Z,4.93
2022-11-06T10:14:57.378Z,8.03
2022-11-06T10:17:39.375Z,5.50
2022-11-06T10:20:16.040Z,5.33
2022-11-06T10:22:55.707Z,9.83
2022-11-06T10:25:35.865Z,9.10
2022-11-06T10:28:13.129Z,4.37
2022-11-06T10:30:51.664Z,6.17
2022-11-06T10:33:35.750Z,4.40
2022-11-06T10:36:09.030Z,4.17
2022-11-06T10:38:40.063Z,6.70
2022-11-06T10:41:17.445Z,6.70
2022-11-06T10:43:51.022Z,5.43
2022-11-06T10:46:26.433Z,5.90
2022-11-06T10:48:59.509Z,5.43
2022-11-06T10:51:47.529Z,4.33
2022-11-06T10:54:29.479Z,4.83
2022-11-06T10:57:13.153Z,4.60
2022-11-06T10:59:41.395Z,4.40
2022-11-06T11:02:26.039Z,4.07
2022-11-06T11:04:57.737Z,3.13
2022-11-06T11:07:27.809Z,4.00
2022-11-06T11:09:55.925Z,5.67
2022-11-06T11:12:28.462Z,10.90
2022-11-06T11:15:15.370Z,5.10
2022-11-06T11:17:44.564Z,7.17
2022-11-06T11:20:32.213Z,3.73
2022-11-06T11:23:14.423Z,4.77
2022-11-06T11:25:45.115Z,4.47
2022-11-06T11:28:27.762Z,5.63
2022-11-06T11:30:58.335Z,3.87
2022-11-06T11:33:27.344Z,3.40
2022-11-06T11:35:55.960Z,3.80
2022-11-06T11:38:25.994Z,3.70
2022-11-06T11:41:06.333Z,6.07
2022-11-06T11:43:36.016Z,5.07
2022-11-06T11:46:20.922Z,3.37
2022-11-06T11:48:51.280Z,3.90
2022-11-06T11:51:38.119Z,3.10
2022-11-06T11:54:17.090Z,3.40
2022-11-06T11:57:07.669Z,3.20
2022-11-06T11:59:43.682Z,2.50
2022-11-06T12:02:26.583Z,2.87
2022-11-06T12:04:59.915Z,3.87
2022-11-06T12:07:30.528Z,2.67
2022-11-06T12:09:59.895Z,3.97
2022-11-06T12:12:32.047Z,4.03
2022-11-06T12:15:19.807Z,4.60
2022-11-06T12:17:53.400Z,2.97
2022-11-06T12:20:25.574Z,4.00
2022-11-06T12:22:56.888Z,5.10
2022-11-06T12:25:30.176Z,3.33
2022-11-06T12:28:00.890Z,2.47
2022-11-06T12:30:33.985Z,4.87
2022-11-06T12:33:11.807Z,4.10
2022-11-06T12:35:43.327Z,3.70
2022-11-06T12:38:22.581Z,3.87
2022-11-06T12:40:55.305Z,3.20
2022-11-06T12:43:32.319Z,4.47
2022-11-06T12:46:16.838Z,6.23
2022-11-06T12:49:01.559Z,3.50
2022-11-06T12:51:39.890Z,3.73
2022-11-06T12:54:22.824Z,3.10
2022-11-06T12:56:57.226Z,3.20
2022-11-06T12:59:36.953Z,1.43
2022-11-06T13:02:29.418Z,1.90
2022-11-06T13:05:03.529Z,2.93
2022-11-06T13:08:13.516Z,5.27
2022-11-06T13:10:51.375Z,2.60
2022-11-06T13:13:35.096Z,1.73
2022-11-06T13:16:11.904Z,3.37
2022-11-06T13:18:51.913Z,4.33
2022-11-06T13:21:26.556Z,5.87
2022-11-06T13:23:59.464Z,4.90
2022-11-06T13:26:34.286Z,2.03
2022-11-06T13:29:05.789Z,3.60
2022-11-06T13:31:39.964Z,1.57
2022-11-06T13:34:18.088Z,2.67
2022-11-06T13:36:47.419Z,1.73
2022-11-06T13:39:20.972Z,3.27
2022-11-06T13:41:49.316Z,1.80
2022-11-06T13:44:18.105Z,4.17
2022-11-06T13:46:56.228Z,2.03
2022-11-06T13:49:32.415Z,2.00
2022-11-06T13:52:02.798Z,1.63
2022-11-06T13:54:49.759Z,1.50
2022-11-06T13:57:51.517Z,2.43
2022-11-06T14:00:22.475Z,4.13
2022-11-06T14:03:35.634Z,1.57
2022-11-06T14:06:07.165Z,2.60
2022-11-06T14:08:41.945Z,2.07
2022-11-06T14:11:14.960Z,1.93
2022-11-06T14:13:56.621Z,9.30
2022-11-06T14:16:33.181Z,2.23
2022-11-06T14:19:06.057Z,5.40
2022-11-06T14:21:53.819Z,2.33
2022-11-06T14:24:40.517Z,4.27
2022-11-06T14:27:13.065Z,1.90
2022-11-06T14:30:00.245Z,2.20
2022-11-06T14:32:43.582Z,2.30
2022-11-06T14:35:51.360Z,2.37
2022-11-06T14:38:48.100Z,2.50
2022-11-06T14:41:51.830Z,1.60
2022-11-06T14:44:33.148Z,2.63
2022-11-06T14:47:03.551Z,2.23
2022-11-06T14:49:36.599Z,3.87
2022-11-06T14:52:07.153Z,5.07
2022-11-06T14:54:40.342Z,2.23
2022-11-06T14:57:10.532Z,4.30
2022-11-06T14:59:41.695Z,2.07
2022-11-06T15:02:20.446Z,2.20
2022-11-06T15:04:53.806Z,4.93
2022-11-06T15:08:03.078Z,4.73
2022-11-06T15:10:59.124Z,1.90
2022-11-06T15:13:31.201Z,3.40
2022-11-06T15:16:04.660Z,2.73
2022-11-06T15:18:36.731Z,4.33
2022-11-06T15:21:09.082Z,1.97
2022-11-06T15:23:43.432Z,2.17
2022-11-06T15:26:24.105Z,2.17
2022-11-06T15:29:10.302Z,2.63
2022-11-06T15:31:39.466Z,3.20
2022-11-06T15:34:14.767Z,2.93
2022-11-06T15:36:45.450Z,2.87
2022-11-06T15:39:24.238Z,2.47
2022-11-06T15:41:53.710Z,7.13
2022-11-06T15:44:24.510Z,1.77
2022-11-06T15:46:56.558Z,2.80
2022-11-06T15:49:25.425Z,2.47
2022-11-06T15:51:56.228Z,1.70
2022-11-06T15:54:38.672Z,1.67
2022-11-06T15:57:16.002Z,2.60
2022-11-06T15:59:44.286Z,1.47
2022-11-06T16:02:18.822Z,1.83
2022-11-06T16:04:47.920Z,2.80
2022-11-06T16:07:17.482Z,1.80
2022-11-06T16:09:46.558Z,1.83
2022-11-06T16:12:18.405Z,1.80
2022-11-06T16:14:46.848Z,2.03
2022-11-06T16:17:20.135Z,2.27
2022-11-06T16:19:50.155Z,2.87
2022-11-06T16:22:20.320Z,3.13
2022-11-06T16:24:52.795Z,2.83
2022-11-06T16:27:23.871Z,3.13
2022-11-06T16:29:55.247Z,1.60
2022-11-06T16:32:26.188Z,1.47
2022-11-06T16:34:55.403Z,1.50
2022-11-06T16:37:39.954Z,1.77
2022-11-06T16:40:49.107Z,2.37
2022-11-06T16:43:20.351Z,4.47
2022-11-06T16:45:57.110Z,2.60
2022-11-06T16:48:36.875Z,5.07
2022-11-06T16:51:10.890Z,2.17
2022-11-06T16:53:53.461Z,1.80
2022-11-06T16:56:27.167Z,1.40
2022-11-06T16:59:01.822Z,3.07
2022-11-06T17:01:38.076Z,2.93
2022-11-06T17:04:06.382Z,2.37
2022-11-06T17:06:36.594Z,6.33
2022-11-06T17:09:09.941Z,8.83
2022-11-06T17:11:38.988Z,3.27
2022-11-06T17:14:18.722Z,3.87
2022-11-06T17:16:49.680Z,6.03
2022-11-06T17:19:17.758Z,3.87
2022-11-06T17:21:45.837Z,6.07
2022-11-06T17:27:01.658Z,11.30
2022-11-06T17:29:30.810Z,3.47
2022-11-06T17:31:58.629Z,2.90
2022-11-06T17:34:26.408Z,3.50
2022-11-06T17:36:54.360Z,9.87
2022-11-06T17:39:22.520Z,5.13
2022-11-06T17:41:50.302Z,4.33
2022-11-06T17:44:18.359Z,4.30
2022-11-06T17:46:48.160Z,4.13
2022-11-06T17:49:18.672Z,9.70
2022-11-06T17:51:58.176Z,10.67
2022-11-06T17:54:28.027Z,9.23
2022-11-06T17:56:56.751Z,7.40
2022-11-06T17:59:24.742Z,6.30
2022-11-06T18:01:55.097Z,6.33
2022-11-06T18:04:25.128Z,6.53
2022-11-06T18:06:54.090Z,10.17
2022-11-06T18:09:22.748Z,7.10
2022-11-06T18:11:51.686Z,7.33
2022-11-06T18:14:20.186Z,7.17
2022-11-06T18:16:48.314Z,9.07
2022-11-06T18:19:19.446Z,11.33
2022-11-06T18:21:47.259Z,6.43
2022-11-06T18:24:15.213Z,7.60
2022-11-06T18:26:43.344Z,6.00
2022-11-06T18:29:13.153Z,9.33
2022-11-06T18:31:41.166Z,8.90
2022-11-06T18:34:18.436Z,8.53
2022-11-06T18:36:49.973Z,8.07
2022-11-06T18:39:18.034Z,7.87
2022-11-06T18:41:45.884Z,7.33
2022-11-06T18:44:13.795Z,5.93
2022-11-06T18:46:41.617Z,8.47
2022-11-06T18:49:11.321Z,7.20
2022-11-06T18:51:39.747Z,5.77
2022-11-06T18:54:11.599Z,5.03
2022-11-06T18:56:39.401Z,4.13
2022-11-06T18:59:08.604Z,3.53
2022-11-06T19:01:36.550Z,4.57
2022-11-06T19:04:05.617Z,7.07
2022-11-06T19:06:34.277Z,6.33
2022-11-06T19:09:02.473Z,6.00
2022-11-06T19:11:32.051Z,8.57
2022-11-06T19:14:00.331Z,6.37
2022-11-06T19:16:28.453Z,7.50
2022-11-06T19:21:30.475Z,4.87
2022-11-06T19:24:03.366Z,6.57
2022-11-06T19:26:35.432Z,5.43
2022-11-06T19:29:03.946Z,3.93
2022-11-06T19:31:33.614Z,10.13
2022-11-06T19:34:02.968Z,3.60
2022-11-06T19:36:31.760Z,8.47
2022-11-06T19:38:59.851Z,5.80
2022-11-06T19:41:29.349Z,5.07
2022-11-06T19:43:58.820Z,5.80
2022-11-06T19:46:31.138Z,4.00
2022-11-06T19:49:03.663Z,4.80
2022-11-06T19:51:31.776Z,6.93
2022-11-06T19:54:00.348Z,4.13
2022-11-06T19:56:29.005Z,7.73
2022-11-06T19:58:58.376Z,6.13
2022-11-06T20:01:26.712Z,4.63
2022-11-06T20:03:54.950Z,4.40
2022-11-06T20:06:23.095Z,5.50
2022-11-06T20:08:51.414Z,7.93
2022-11-06T20:11:19.976Z,5.37
2022-11-06T20:13:48.297Z,11.43
2022-11-06T20:16:19.705Z,4.83
2022-11-06T20:18:51.792Z,6.33
2022-11-06T20:21:20.997Z,8.63
2022-11-06T20:23:49.655Z,8.83
2022-11-06T20:26:17.697Z,8.53
2022-11-06T20:28:46.866Z,7.60
2022-11-06T20:31:18.604Z,7.07
2022-11-06T20:33:46.687Z,9.77
2022-11-06T20:36:17.311Z,7.30
2022-11-06T20:38:45.953Z,7.07
2022-11-06T20:41:14.584Z,9.63
2022-11-06T20:43:43.100Z,6.63
2022-11-06T20:46:12.585Z,7.67
2022-11-06T20:48:43.101Z,10.10
2022-11-06T20:51:14.615Z,9.10
2022-11-06T20:53:42.961Z,7.83
2022-11-06T20:56:12.939Z,6.07
2022-11-06T20:58:40.963Z,6.63
2022-11-06T21:01:10.569Z,14.03
2022-11-06T21:03:40.029Z,8.50
2022-11-06T21:06:10.436Z,6.00
2022-11-06T21:08:41.863Z,10.23
2022-11-06T21:11:12.561Z,11.47
2022-11-06T21:13:41.620Z,9.50
2022-11-06T21:16:12.922Z,11.40
2022-11-06T21:18:41.756Z,8.00
2022-11-06T21:21:12.539Z,8.43
2022-11-06T21:23:41.554Z,8.90
2022-11-06T21:26:11.713Z,8.80
2022-11-06T21:28:41.621Z,8.60
2022-11-06T21:31:10.776Z,8.50
2022-11-06T21:33:41.078Z,8.93
2022-11-06T21:36:13.262Z,15.10
2022-11-06T21:38:41.939Z,10.07
2022-11-06T21:41:12.205Z,9.80
2022-11-06T21:43:40.709Z,9.40
2022-11-06T21:46:11.344Z,13.53
2022-11-06T21:48:46.232Z,10.93
2022-11-06T21:51:18.444Z,11.37
2022-11-06T21:54:04.161Z,10.90
2022-11-06T21:56:32.268Z,11.80
2022-11-06T21:59:02.303Z,11.53
2022-11-06T22:01:32.000Z,11.00
2022-11-06T22:04:00.174Z,10.33
2022-11-06T22:06:30.788Z,7.20
2022-11-06T22:09:00.779Z,10.47
2022-11-06T22:11:30.822Z,13.03
2022-11-06T22:14:00.184Z,12.23
2022-11-06T22:16:30.000Z,7.10
2022-11-06T22:18:59.031Z,13.87
2022-11-06T22:21:30.543Z,12.23
2022-11-06T22:23:58.965Z,7.33
2022-11-06T22:26:29.154Z,10.57
2022-11-06T22:28:59.301Z,10.60
2022-11-06T22:31:28.725Z,11.47
2022-11-06T22:33:57.456Z,10.43
2022-11-06T22:36:25.805Z,11.20
2022-11-06T22:38:55.387Z,9.60
2022-11-06T22:41:25.378Z,13.10
2022-11-06T22:43:53.801Z,14.03
2022-11-06T22:46:24.403Z,10.47
2022-11-06T22:48:53.433Z,9.87
2022-11-06T22:51:23.654Z,11.57
2022-11-06T22:53:51.742Z,12.30
2022-11-06T22:56:22.311Z,10.10
2022-11-06T22:58:54.652Z,8.00
2022-11-06T23:01:24.311Z,14.10
2022-11-06T23:03:56.704Z,9.23
2022-11-06T23:06:26.076Z,13.70
2022-11-06T23:08:54.561Z,10.00
2022-11-06T23:11:25.288Z,10.33
2022-11-06T23:13:54.032Z,12.47
2022-11-06T23:16:44.922Z,11.07
2022-11-06T23:19:14.591Z,12.03
2022-11-06T23:21:44.184Z,11.40
2022-11-06T23:24:12.778Z,11.67
2022-11-06T23:26:43.830Z,12.60
2022-11-06T23:29:11.945Z,13.73
2022-11-06T23:31:41.481Z,15.33
2022-11-06T23:34:09.581Z,15.97
2022-11-06T23:36:37.691Z,11.10
2022-11-06T23:39:06.233Z,12.00
2022-11-06T23:41:46.663Z,10.57
2022-11-06T23:44:33.987Z,12.13
2022-11-06T23:47:02.602Z,11.27
2022-11-06T23:49:30.876Z,9.70
2022-11-06T23:51:59.328Z,11.50
2022-11-06T23:54:27.421Z,10.63
2022-11-06T23:56:55.529Z,8.97
2022-11-06T23:59:25.257Z,10.30
